sensor_id;sensor_type;location;lat;lon;timestamp;pressure;altitude;pressure_sealevel;temperature;humidity
55171;BME280;41060;47.510;8.680;2024-03-22T00:01:45;97813.34;;;15.16;45.14
55171;BME280;41060;47.510;8.680;2024-03-22T00:04:12;97802.75;;;15.05;44.58
55171;BME280;41060;47.510;8.680;2024-03-22T00:06:38;97814.31;;;15.15;44.18
55171;BME280;41060;47.510;8.680;2024-03-22T00:09:06;97819.31;;;15.08;44.54
55171;BME280;41060;47.510;8.680;2024-03-22T00:11:32;97787.34;;;14.87;44.64
55171;BME280;41060;47.510;8.680;2024-03-22T00:13:58;97817.63;;;15.07;44.72
55171;BME280;41060;47.510;8.680;2024-03-22T00:16:25;97815.25;;;15.04;44.51
55171;BME280;41060;47.510;8.680;2024-03-22T00:18:53;97819.41;;;14.97;44.60
55171;BME280;41060;47.510;8.680;2024-03-22T00:21:18;97824.25;;;14.82;44.87
55171;BME280;41060;47.510;8.680;2024-03-22T00:23:46;97812.66;;;14.72;45.00
55171;BME280;41060;47.510;8.680;2024-03-22T00:26:11;97808.13;;;14.63;44.75
55171;BME280;41060;47.510;8.680;2024-03-22T00:28:38;97800.28;;;14.62;44.48
55171;BME280;41060;47.510;8.680;2024-03-22T00:31:06;97813.59;;;14.62;44.94
55171;BME280;41060;47.510;8.680;2024-03-22T00:33:33;97813.59;;;14.62;45.05
55171;BME280;41060;47.510;8.680;2024-03-22T00:36:00;97813.72;;;14.60;45.18
55171;BME280;41060;47.510;8.680;2024-03-22T00:38:30;97809.72;;;14.54;45.54
55171;BME280;41060;47.510;8.680;2024-03-22T00:40:55;97812.22;;;14.46;45.84
55171;BME280;41060;47.510;8.680;2024-03-22T00:43:22;97807.38;;;14.40;45.86
55171;BME280;41060;47.510;8.680;2024-03-22T00:45:48;97802.59;;;14.34;45.60
55171;BME280;41060;47.510;8.680;2024-03-22T00:48:15;97801.63;;;14.35;45.81
55171;BME280;41060;47.510;8.680;2024-03-22T00:50:41;97798.81;;;14.37;45.78
55171;BME280;41060;47.510;8.680;2024-03-22T00:53:09;97799.06;;;14.34;45.85
55171;BME280;41060;47.510;8.680;2024-03-22T00:55:35;97786.03;;;14.31;45.96
55171;BME280;41060;47.510;8.680;2024-03-22T00:58:02;97788.22;;;14.26;46.13
55171;BME280;41060;47.510;8.680;2024-03-22T01:00:28;97790.19;;;14.24;46.31
55171;BME280;41060;47.510;8.680;2024-03-22T01:02:55;97785.09;;;14.21;45.91
55171;BME280;41060;47.510;8.680;2024-03-22T01:05:20;97778.06;;;14.19;46.26
55171;BME280;41060;47.510;8.680;2024-03-22T01:07:47;97772.88;;;14.18;46.18
55171;BME280;41060;47.510;8.680;2024-03-22T01:10:14;97771.22;;;14.17;46.25
55171;BME280;41060;47.510;8.680;2024-03-22T01:12:41;97780.16;;;14.16;45.74
55171;BME280;41060;47.510;8.680;2024-03-22T01:15:08;97780.41;;;14.13;45.20
55171;BME280;41060;47.510;8.680;2024-03-22T01:17:37;97778.22;;;14.07;45.04
55171;BME280;41060;47.510;8.680;2024-03-22T01:20:03;97778.47;;;14.04;45.39
55171;BME280;41060;47.510;8.680;2024-03-22T01:22:30;97782.25;;;14.01;45.70
55171;BME280;41060;47.510;8.680;2024-03-22T01:24:56;97770.28;;;13.96;45.98
55171;BME280;41060;47.510;8.680;2024-03-22T01:27:24;97774.75;;;13.95;46.04
55171;BME280;41060;47.510;8.680;2024-03-22T01:29:50;97773.09;;;13.94;46.23
55171;BME280;41060;47.510;8.680;2024-03-22T01:32:17;97772.59;;;13.89;46.59
55171;BME280;41060;47.510;8.680;2024-03-22T01:34:42;97769.25;;;13.87;46.45
55171;BME280;41060;47.510;8.680;2024-03-22T01:37:10;97763.31;;;13.84;46.78
55171;BME280;41060;47.510;8.680;2024-03-22T01:39:35;97748.38;;;13.71;46.78
55171;BME280;41060;47.510;8.680;2024-03-22T01:42:02;97761.75;;;13.81;46.75
55171;BME280;41060;47.510;8.680;2024-03-22T01:44:32;97740.03;;;13.65;45.99
55171;BME280;41060;47.510;8.680;2024-03-22T01:46:59;97758.63;;;13.76;45.79
55171;BME280;41060;47.510;8.680;2024-03-22T01:49:25;97755.00;;;13.77;45.81
55171;BME280;41060;47.510;8.680;2024-03-22T01:51:53;97755.00;;;13.77;46.15
55171;BME280;41060;47.510;8.680;2024-03-22T01:54:19;97754.16;;;13.76;46.36
55171;BME280;41060;47.510;8.680;2024-03-22T01:56:47;97726.03;;;13.52;46.63
55171;BME280;41060;47.510;8.680;2024-03-22T01:59:16;97752.00;;;13.59;46.84
55171;BME280;41060;47.510;8.680;2024-03-22T02:01:45;97746.41;;;13.30;47.44
55171;BME280;41060;47.510;8.680;2024-03-22T02:04:11;97740.63;;;13.14;47.61
55171;BME280;41060;47.510;8.680;2024-03-22T02:06:38;97741.09;;;12.97;47.56
55171;BME280;41060;47.510;8.680;2024-03-22T02:09:04;97754.88;;;12.69;47.79
55171;BME280;41060;47.510;8.680;2024-03-22T02:11:32;97746.28;;;12.54;47.92
55171;BME280;41060;47.510;8.680;2024-03-22T02:13:59;97746.13;;;12.44;48.21
55171;BME280;41060;47.510;8.680;2024-03-22T02:16:25;97741.31;;;12.49;48.51
55171;BME280;41060;47.510;8.680;2024-03-22T02:18:52;97734.81;;;12.64;47.96
55171;BME280;41060;47.510;8.680;2024-03-22T02:21:20;97729.59;;;12.63;48.17
55171;BME280;41060;47.510;8.680;2024-03-22T02:23:46;97729.59;;;12.63;48.17
55171;BME280;41060;47.510;8.680;2024-03-22T02:26:13;97731.19;;;12.65;48.17
55171;BME280;41060;47.510;8.680;2024-03-22T02:28:39;97724.53;;;12.71;48.06
55171;BME280;41060;47.510;8.680;2024-03-22T02:31:07;97734.69;;;12.77;47.77
55171;BME280;41060;47.510;8.680;2024-03-22T02:33:33;97715.13;;;12.78;47.98
55171;BME280;41060;47.510;8.680;2024-03-22T02:36:00;97716.69;;;12.81;47.75
55171;BME280;41060;47.510;8.680;2024-03-22T02:38:26;97718.63;;;12.68;47.97
55171;BME280;41060;47.510;8.680;2024-03-22T02:40:53;97707.16;;;12.45;48.70
55171;BME280;41060;47.510;8.680;2024-03-22T02:43:20;97716.06;;;12.55;48.58
55171;BME280;41060;47.510;8.680;2024-03-22T02:45:47;97710.91;;;12.53;48.47
55171;BME280;41060;47.510;8.680;2024-03-22T02:48:13;97709.47;;;12.60;48.50
55171;BME280;41060;47.510;8.680;2024-03-22T02:50:40;97707.50;;;12.62;48.40
55171;BME280;41060;47.510;8.680;2024-03-22T02:53:06;97699.91;;;12.69;48.45
55171;BME280;41060;47.510;8.680;2024-03-22T02:55:36;97700.53;;;12.84;48.42
55171;BME280;41060;47.510;8.680;2024-03-22T02:58:05;97696.41;;;12.91;48.18
55171;BME280;41060;47.510;8.680;2024-03-22T03:00:35;97703.03;;;12.96;48.01
55171;BME280;41060;47.510;8.680;2024-03-22T03:03:01;97691.19;;;13.00;48.11
55171;BME280;41060;47.510;8.680;2024-03-22T03:05:28;97699.88;;;13.02;47.90
55171;BME280;41060;47.510;8.680;2024-03-22T03:07:54;97695.41;;;12.92;47.97
55171;BME280;41060;47.510;8.680;2024-03-22T03:10:23;97688.06;;;12.73;48.05
55171;BME280;41060;47.510;8.680;2024-03-22T03:12:54;97694.00;;;12.65;48.11
55171;BME280;41060;47.510;8.680;2024-03-22T03:15:22;97686.63;;;12.58;48.46
55171;BME280;41060;47.510;8.680;2024-03-22T03:17:48;97691.47;;;12.53;48.76
55171;BME280;41060;47.510;8.680;2024-03-22T03:20:16;97692.44;;;12.52;48.66
55171;BME280;41060;47.510;8.680;2024-03-22T03:22:42;97693.88;;;12.56;48.78
55171;BME280;41060;47.510;8.680;2024-03-22T03:25:09;97681.19;;;12.59;48.79
55171;BME280;41060;47.510;8.680;2024-03-22T03:27:38;97678.28;;;12.51;48.59
55171;BME280;41060;47.510;8.680;2024-03-22T03:30:06;97685.19;;;12.54;48.26
55171;BME280;41060;47.510;8.680;2024-03-22T03:32:33;97693.63;;;12.48;48.44
55171;BME280;41060;47.510;8.680;2024-03-22T03:35:00;97691.81;;;12.48;48.51
55171;BME280;41060;47.510;8.680;2024-03-22T03:37:30;97691.31;;;12.43;48.42
55171;BME280;41060;47.510;8.680;2024-03-22T03:39:57;97686.00;;;12.43;48.59
55171;BME280;41060;47.510;8.680;2024-03-22T03:42:24;97676.59;;;12.50;48.45
55171;BME280;41060;47.510;8.680;2024-03-22T03:44:50;97679.63;;;12.57;48.31
55171;BME280;41060;47.510;8.680;2024-03-22T03:47:16;97676.63;;;12.61;48.21
55171;BME280;41060;47.510;8.680;2024-03-22T03:49:46;97669.34;;;12.63;48.59
55171;BME280;41060;47.510;8.680;2024-03-22T03:52:11;97666.09;;;12.60;48.46
55171;BME280;41060;47.510;8.680;2024-03-22T03:54:38;97659.81;;;12.50;48.50
55171;BME280;41060;47.510;8.680;2024-03-22T03:57:04;97656.69;;;12.45;48.57
55171;BME280;41060;47.510;8.680;2024-03-22T03:59:31;97653.41;;;12.30;48.88
55171;BME280;41060;47.510;8.680;2024-03-22T04:01:57;97639.63;;;12.25;49.01
55171;BME280;41060;47.510;8.680;2024-03-22T04:04:24;97655.34;;;12.28;49.19
55171;BME280;41060;47.510;8.680;2024-03-22T04:06:51;97652.81;;;12.15;49.43
55171;BME280;41060;47.510;8.680;2024-03-22T04:09:17;97651.22;;;12.02;49.47
55171;BME280;41060;47.510;8.680;2024-03-22T04:11:44;97602.63;;;11.77;49.50
55171;BME280;41060;47.510;8.680;2024-03-22T04:14:10;97644.91;;;12.03;49.62
55171;BME280;41060;47.510;8.680;2024-03-22T04:16:36;97637.06;;;11.90;49.85
55171;BME280;41060;47.510;8.680;2024-03-22T04:19:03;97639.78;;;11.77;50.19
55171;BME280;41060;47.510;8.680;2024-03-22T04:21:29;97638.78;;;11.67;50.43
55171;BME280;41060;47.510;8.680;2024-03-22T04:23:57;97641.63;;;11.53;50.85
55171;BME280;41060;47.510;8.680;2024-03-22T04:26:23;97647.09;;;11.63;50.57
55171;BME280;41060;47.510;8.680;2024-03-22T04:28:50;97643.81;;;11.59;50.76
55171;BME280;41060;47.510;8.680;2024-03-22T04:31:15;97622.91;;;11.43;50.74
55171;BME280;41060;47.510;8.680;2024-03-22T04:33:43;97641.53;;;11.55;50.93
55171;BME280;41060;47.510;8.680;2024-03-22T04:36:08;97641.94;;;11.72;50.73
55171;BME280;41060;47.510;8.680;2024-03-22T04:38:38;97642.19;;;11.80;50.53
55171;BME280;41060;47.510;8.680;2024-03-22T04:41:06;97643.00;;;11.94;50.21
55171;BME280;41060;47.510;8.680;2024-03-22T04:43:32;97645.19;;;12.11;49.67
55171;BME280;41060;47.510;8.680;2024-03-22T04:45:59;97640.38;;;12.16;49.63
55171;BME280;41060;47.510;8.680;2024-03-22T04:48:26;97642.41;;;12.12;50.05
55171;BME280;41060;47.510;8.680;2024-03-22T04:50:54;97637.94;;;12.02;50.34
55171;BME280;41060;47.510;8.680;2024-03-22T04:53:23;97637.94;;;12.02;50.40
55171;BME280;41060;47.510;8.680;2024-03-22T04:55:50;97641.19;;;11.94;50.39
55171;BME280;41060;47.510;8.680;2024-03-22T04:58:19;97636.53;;;11.85;51.06
55171;BME280;41060;47.510;8.680;2024-03-22T05:00:46;97634.22;;;11.69;51.45
55171;BME280;41060;47.510;8.680;2024-03-22T05:03:14;97633.94;;;11.61;51.51
55171;BME280;41060;47.510;8.680;2024-03-22T05:05:40;97630.28;;;11.51;52.16
55171;BME280;41060;47.510;8.680;2024-03-22T05:08:07;97638.22;;;11.51;51.77
55171;BME280;41060;47.510;8.680;2024-03-22T05:10:34;97632.50;;;11.57;51.82
55171;BME280;41060;47.510;8.680;2024-03-22T05:13:00;97629.94;;;11.56;51.86
55171;BME280;41060;47.510;8.680;2024-03-22T05:15:27;97624.28;;;11.60;51.55
55171;BME280;41060;47.510;8.680;2024-03-22T05:17:56;97621.91;;;11.68;51.60
55171;BME280;41060;47.510;8.680;2024-03-22T05:20:22;97617.34;;;11.70;51.75
55171;BME280;41060;47.510;8.680;2024-03-22T05:22:49;97620.81;;;11.95;54.02
55171;BME280;41060;47.510;8.680;2024-03-22T05:25:15;97616.72;;;12.13;52.55
55171;BME280;41060;47.510;8.680;2024-03-22T05:27:42;97617.44;;;12.15;51.83
55171;BME280;41060;47.510;8.680;2024-03-22T05:30:09;97622.25;;;12.10;51.76
55171;BME280;41060;47.510;8.680;2024-03-22T05:32:38;97613.22;;;12.23;51.56
55171;BME280;41060;47.510;8.680;2024-03-22T05:35:04;97610.44;;;12.36;51.20
55171;BME280;41060;47.510;8.680;2024-03-22T05:37:34;97606.69;;;12.50;50.60
55171;BME280;41060;47.510;8.680;2024-03-22T05:40:00;97619.13;;;12.49;50.83
55171;BME280;41060;47.510;8.680;2024-03-22T05:42:27;97613.09;;;12.25;51.40
55171;BME280;41060;47.510;8.680;2024-03-22T05:44:54;97613.47;;;12.20;51.06
55171;BME280;41060;47.510;8.680;2024-03-22T05:47:22;97613.81;;;12.05;51.66
55171;BME280;41060;47.510;8.680;2024-03-22T05:49:49;97613.28;;;11.88;51.89
55171;BME280;41060;47.510;8.680;2024-03-22T05:52:16;97615.16;;;11.75;52.33
55171;BME280;41060;47.510;8.680;2024-03-22T05:54:44;97618.31;;;11.80;52.28
55171;BME280;41060;47.510;8.680;2024-03-22T05:57:09;97612.13;;;11.69;52.36
55171;BME280;41060;47.510;8.680;2024-03-22T05:59:36;97608.28;;;11.73;52.18
55171;BME280;41060;47.510;8.680;2024-03-22T06:02:02;97599.63;;;11.82;52.12
55171;BME280;41060;47.510;8.680;2024-03-22T06:04:29;97604.75;;;11.96;51.87
55171;BME280;41060;47.510;8.680;2024-03-22T06:06:56;97600.88;;;11.89;51.92
55171;BME280;41060;47.510;8.680;2024-03-22T06:09:25;97598.97;;;12.02;51.74
55171;BME280;41060;47.510;8.680;2024-03-22T06:12:02;97596.22;;;12.15;51.25
55171;BME280;41060;47.510;8.680;2024-03-22T06:14:30;97595.50;;;12.24;50.95
55171;BME280;41060;47.510;8.680;2024-03-22T06:16:55;97602.84;;;12.32;50.98
55171;BME280;41060;47.510;8.680;2024-03-22T06:19:22;97598.63;;;12.29;51.21
55171;BME280;41060;47.510;8.680;2024-03-22T06:21:49;97597.53;;;12.32;51.33
55171;BME280;41060;47.510;8.680;2024-03-22T06:24:17;97602.47;;;12.36;51.04
55171;BME280;41060;47.510;8.680;2024-03-22T06:26:42;97597.88;;;12.49;50.57
55171;BME280;41060;47.510;8.680;2024-03-22T06:29:09;97565.16;;;12.49;50.42
55171;BME280;41060;47.510;8.680;2024-03-22T06:31:35;97588.44;;;12.68;50.06
55171;BME280;41060;47.510;8.680;2024-03-22T06:34:02;97586.97;;;12.75;49.72
55171;BME280;41060;47.510;8.680;2024-03-22T06:36:30;97586.47;;;12.81;49.69
55171;BME280;41060;47.510;8.680;2024-03-22T06:38:57;97588.63;;;12.87;49.35
55171;BME280;41060;47.510;8.680;2024-03-22T06:41:25;97580.72;;;12.76;49.80
55171;BME280;41060;47.510;8.680;2024-03-22T06:43:52;97586.59;;;12.79;53.18
55171;BME280;41060;47.510;8.680;2024-03-22T06:46:21;97584.53;;;13.05;52.65
55171;BME280;41060;47.510;8.680;2024-03-22T06:48:48;97547.44;;;13.24;49.21
55171;BME280;41060;47.510;8.680;2024-03-22T06:51:15;97578.38;;;13.57;48.86
55171;BME280;41060;47.510;8.680;2024-03-22T06:53:41;97587.63;;;13.42;48.64
55171;BME280;41060;47.510;8.680;2024-03-22T06:56:10;97580.94;;;13.48;48.85
55171;BME280;41060;47.510;8.680;2024-03-22T06:58:39;97585.75;;;13.54;48.63
55171;BME280;41060;47.510;8.680;2024-03-22T07:01:06;97586.66;;;13.43;49.20
55171;BME280;41060;47.510;8.680;2024-03-22T07:03:31;97599.69;;;13.14;50.13
55171;BME280;41060;47.510;8.680;2024-03-22T07:05:59;97590.16;;;13.00;50.29
55171;BME280;41060;47.510;8.680;2024-03-22T07:08:25;97592.25;;;12.86;50.95
55171;BME280;41060;47.510;8.680;2024-03-22T07:10:53;97597.88;;;12.60;51.59
55171;BME280;41060;47.510;8.680;2024-03-22T07:13:20;97602.00;;;12.42;52.46
55171;BME280;41060;47.510;8.680;2024-03-22T07:15:48;97596.91;;;12.50;52.47
55171;BME280;41060;47.510;8.680;2024-03-22T07:18:14;97587.50;;;12.57;52.30
55171;BME280;41060;47.510;8.680;2024-03-22T07:20:42;97592.19;;;12.76;51.87
55171;BME280;41060;47.510;8.680;2024-03-22T07:23:08;97591.91;;;12.79;52.27
55171;BME280;41060;47.510;8.680;2024-03-22T07:25:34;97593.94;;;12.87;51.32
55171;BME280;41060;47.510;8.680;2024-03-22T07:28:00;97587.28;;;12.92;51.34
55171;BME280;41060;47.510;8.680;2024-03-22T07:30:27;97581.25;;;13.13;51.15
55171;BME280;41060;47.510;8.680;2024-03-22T07:32:54;97578.63;;;13.22;50.93
55171;BME280;41060;47.510;8.680;2024-03-22T07:35:21;97577.94;;;13.20;50.70
55171;BME280;41060;47.510;8.680;2024-03-22T07:37:48;97575.41;;;13.19;50.89
55171;BME280;41060;47.510;8.680;2024-03-22T07:40:14;97581.97;;;13.03;51.23
55171;BME280;41060;47.510;8.680;2024-03-22T07:42:40;97584.97;;;12.99;51.96
55171;BME280;41060;47.510;8.680;2024-03-22T07:45:08;97580.91;;;13.06;51.78
55171;BME280;41060;47.510;8.680;2024-03-22T07:47:34;97581.94;;;13.15;51.64
55171;BME280;41060;47.510;8.680;2024-03-22T07:50:03;97566.41;;;13.52;50.76
55171;BME280;41060;47.510;8.680;2024-03-22T07:52:28;97578.38;;;13.78;50.10
55171;BME280;41060;47.510;8.680;2024-03-22T07:54:55;97571.75;;;14.03;49.97
55171;BME280;41060;47.510;8.680;2024-03-22T07:57:21;97564.09;;;14.30;49.26
55171;BME280;41060;47.510;8.680;2024-03-22T07:59:49;97565.97;;;14.49;48.52
55171;BME280;41060;47.510;8.680;2024-03-22T08:02:15;97575.66;;;14.19;48.88
55171;BME280;41060;47.510;8.680;2024-03-22T08:04:42;97572.56;;;14.14;49.17
55171;BME280;41060;47.510;8.680;2024-03-22T08:07:09;97558.34;;;13.84;49.64
55171;BME280;41060;47.510;8.680;2024-03-22T08:09:35;97570.03;;;14.13;49.44
55171;BME280;41060;47.510;8.680;2024-03-22T08:12:02;97568.25;;;14.23;49.23
55171;BME280;41060;47.510;8.680;2024-03-22T08:14:28;97565.31;;;14.26;48.74
55171;BME280;41060;47.510;8.680;2024-03-22T08:16:54;97554.84;;;14.34;48.39
55171;BME280;41060;47.510;8.680;2024-03-22T08:19:21;97546.53;;;14.28;48.32
55171;BME280;41060;47.510;8.680;2024-03-22T08:21:47;97549.69;;;14.42;48.47
55171;BME280;41060;47.510;8.680;2024-03-22T08:24:15;97544.94;;;14.46;48.42
55171;BME280;41060;47.510;8.680;2024-03-22T08:26:42;97540.75;;;14.53;48.72
55171;BME280;41060;47.510;8.680;2024-03-22T08:29:12;97529.13;;;14.54;48.51
55171;BME280;41060;47.510;8.680;2024-03-22T08:31:38;97533.19;;;14.77;47.84
55171;BME280;41060;47.510;8.680;2024-03-22T08:34:05;97515.00;;;14.82;48.00
55171;BME280;41060;47.510;8.680;2024-03-22T08:36:31;97523.59;;;15.15;47.54
55171;BME280;41060;47.510;8.680;2024-03-22T08:38:59;97526.13;;;15.16;47.31
55171;BME280;41060;47.510;8.680;2024-03-22T08:41:27;97528.22;;;15.32;47.17
55171;BME280;41060;47.510;8.680;2024-03-22T08:43:54;97520.22;;;15.42;46.23
55171;BME280;41060;47.510;8.680;2024-03-22T08:46:19;97529.47;;;15.47;45.96
55171;BME280;41060;47.510;8.680;2024-03-22T08:48:49;97526.22;;;15.53;46.01
55171;BME280;41060;47.510;8.680;2024-03-22T08:51:14;97523.97;;;15.58;46.05
55171;BME280;41060;47.510;8.680;2024-03-22T08:53:41;97527.59;;;15.67;46.08
55171;BME280;41060;47.510;8.680;2024-03-22T08:56:07;97530.25;;;15.86;45.31
55171;BME280;41060;47.510;8.680;2024-03-22T08:58:35;97522.06;;;15.88;44.95
55171;BME280;41060;47.510;8.680;2024-03-22T09:01:01;97519.13;;;15.91;45.45
55171;BME280;41060;47.510;8.680;2024-03-22T09:03:28;97523.00;;;16.16;45.29
55171;BME280;41060;47.510;8.680;2024-03-22T09:05:56;97510.75;;;16.23;44.19
55171;BME280;41060;47.510;8.680;2024-03-22T09:08:23;97503.97;;;16.28;43.93
55171;BME280;41060;47.510;8.680;2024-03-22T09:10:51;97510.22;;;16.64;43.99
55171;BME280;41060;47.510;8.680;2024-03-22T09:13:21;97514.13;;;16.97;42.66
55171;BME280;41060;47.510;8.680;2024-03-22T09:15:49;97501.72;;;17.14;41.79
55171;BME280;41060;47.510;8.680;2024-03-22T09:18:23;97501.06;;;17.12;40.45
55171;BME280;41060;47.510;8.680;2024-03-22T09:20:49;97494.78;;;17.21;40.40
55171;BME280;41060;47.510;8.680;2024-03-22T09:23:15;97498.75;;;17.17;39.74
55171;BME280;41060;47.510;8.680;2024-03-22T09:25:42;97490.38;;;17.38;39.34
55171;BME280;41060;47.510;8.680;2024-03-22T09:28:11;97496.00;;;17.52;39.21
55171;BME280;41060;47.510;8.680;2024-03-22T09:30:38;97487.91;;;17.62;39.50
55171;BME280;41060;47.510;8.680;2024-03-22T09:33:07;97485.13;;;17.72;38.10
55171;BME280;41060;47.510;8.680;2024-03-22T09:35:33;97470.22;;;17.95;38.11
55171;BME280;41060;47.510;8.680;2024-03-22T09:38:00;97477.72;;;17.91;37.64
55171;BME280;41060;47.510;8.680;2024-03-22T09:40:26;97474.66;;;17.60;38.04
55171;BME280;41060;47.510;8.680;2024-03-22T09:42:56;97478.84;;;17.37;38.03
55171;BME280;41060;47.510;8.680;2024-03-22T09:45:25;97467.06;;;16.95;39.15
55171;BME280;41060;47.510;8.680;2024-03-22T09:47:53;97471.06;;;17.08;38.64
55171;BME280;41060;47.510;8.680;2024-03-22T09:50:22;97470.38;;;17.24;39.41
55171;BME280;41060;47.510;8.680;2024-03-22T09:52:50;97467.06;;;17.30;38.39
55171;BME280;41060;47.510;8.680;2024-03-22T09:55:22;97467.34;;;17.01;38.79
55171;BME280;41060;47.510;8.680;2024-03-22T09:57:50;97476.25;;;16.74;39.65
55171;BME280;41060;47.510;8.680;2024-03-22T10:00:17;97468.75;;;16.78;40.10
55171;BME280;41060;47.510;8.680;2024-03-22T10:02:46;97451.72;;;17.32;39.30
55171;BME280;41060;47.510;8.680;2024-03-22T10:05:12;97462.91;;;17.79;38.76
55171;BME280;41060;47.510;8.680;2024-03-22T10:07:40;97457.69;;;18.03;38.56
55171;BME280;41060;47.510;8.680;2024-03-22T10:10:07;97445.47;;;18.01;37.29
55171;BME280;41060;47.510;8.680;2024-03-22T10:12:34;97446.31;;;18.01;37.47
55171;BME280;41060;47.510;8.680;2024-03-22T10:14:59;97443.13;;;18.06;36.44
55171;BME280;41060;47.510;8.680;2024-03-22T10:17:28;97434.00;;;18.17;37.77
55171;BME280;41060;47.510;8.680;2024-03-22T10:19:54;97428.56;;;18.00;36.48
55171;BME280;41060;47.510;8.680;2024-03-22T10:22:20;97422.72;;;18.13;36.20
55171;BME280;41060;47.510;8.680;2024-03-22T10:24:51;97423.03;;;18.10;36.14
55171;BME280;41060;47.510;8.680;2024-03-22T10:27:18;97422.50;;;17.98;36.42
55171;BME280;41060;47.510;8.680;2024-03-22T10:29:45;97418.91;;;18.16;35.66
55171;BME280;41060;47.510;8.680;2024-03-22T10:32:15;97417.88;;;18.09;35.42
55171;BME280;41060;47.510;8.680;2024-03-22T10:34:42;97415.22;;;18.17;34.46
55171;BME280;41060;47.510;8.680;2024-03-22T10:37:12;97405.75;;;18.55;34.26
55171;BME280;41060;47.510;8.680;2024-03-22T10:39:40;97414.72;;;18.96;34.07
55171;BME280;41060;47.510;8.680;2024-03-22T10:42:10;97415.25;;;18.91;32.89
55171;BME280;41060;47.510;8.680;2024-03-22T10:44:35;97407.66;;;18.78;33.95
55171;BME280;41060;47.510;8.680;2024-03-22T10:47:04;97381.19;;;18.84;34.33
55171;BME280;41060;47.510;8.680;2024-03-22T10:49:37;97398.78;;;19.18;32.91
55171;BME280;41060;47.510;8.680;2024-03-22T10:52:07;97388.09;;;19.82;32.65
55171;BME280;41060;47.510;8.680;2024-03-22T10:54:37;97388.72;;;20.00;33.10
55171;BME280;41060;47.510;8.680;2024-03-22T10:57:07;97382.22;;;20.25;31.38
55171;BME280;41060;47.510;8.680;2024-03-22T10:59:40;97373.91;;;20.43;31.25
55171;BME280;41060;47.510;8.680;2024-03-22T11:02:10;97365.91;;;20.81;30.48
55171;BME280;41060;47.510;8.680;2024-03-22T11:04:36;97369.78;;;20.78;28.81
55171;BME280;41060;47.510;8.680;2024-03-22T11:07:03;97367.09;;;20.55;29.06
55171;BME280;41060;47.510;8.680;2024-03-22T11:11:56;97346.16;;;20.88;28.39
55171;BME280;41060;47.510;8.680;2024-03-22T11:14:22;97349.88;;;20.87;27.30
55171;BME280;41060;47.510;8.680;2024-03-22T11:16:52;97357.88;;;21.18;26.94
55171;BME280;41060;47.510;8.680;2024-03-22T11:19:18;97352.41;;;21.12;26.94
55171;BME280;41060;47.510;8.680;2024-03-22T11:21:44;97347.13;;;20.95;27.73
55171;BME280;41060;47.510;8.680;2024-03-22T11:24:11;97335.63;;;21.39;27.65
55171;BME280;41060;47.510;8.680;2024-03-22T11:26:37;97329.22;;;21.55;25.81
55171;BME280;41060;47.510;8.680;2024-03-22T11:29:03;97343.25;;;21.35;24.56
55171;BME280;41060;47.510;8.680;2024-03-22T11:31:30;97334.31;;;21.20;25.41
55171;BME280;41060;47.510;8.680;2024-03-22T11:33:57;97330.00;;;21.11;25.20
55171;BME280;41060;47.510;8.680;2024-03-22T11:36:24;97328.91;;;21.20;25.79
55171;BME280;41060;47.510;8.680;2024-03-22T11:38:50;97332.59;;;20.36;25.83
55171;BME280;41060;47.510;8.680;2024-03-22T11:41:21;97325.41;;;20.28;26.84
55171;BME280;41060;47.510;8.680;2024-03-22T11:43:49;97318.59;;;20.41;25.27
55171;BME280;41060;47.510;8.680;2024-03-22T11:46:17;97309.44;;;20.95;26.34
55171;BME280;41060;47.510;8.680;2024-03-22T11:48:43;97308.47;;;21.11;25.17
55171;BME280;41060;47.510;8.680;2024-03-22T11:51:11;97302.38;;;21.61;26.21
55171;BME280;41060;47.510;8.680;2024-03-22T11:53:38;97294.59;;;22.17;26.02
55171;BME280;41060;47.510;8.680;2024-03-22T11:56:05;97294.88;;;22.07;24.56
55171;BME280;41060;47.510;8.680;2024-03-22T11:58:33;97288.75;;;22.35;24.85
55171;BME280;41060;47.510;8.680;2024-03-22T12:01:01;97285.31;;;22.41;24.47
55171;BME280;41060;47.510;8.680;2024-03-22T12:03:28;97275.97;;;22.22;23.75
55171;BME280;41060;47.510;8.680;2024-03-22T12:05:55;97279.03;;;21.83;24.31
55171;BME280;41060;47.510;8.680;2024-03-22T12:08:23;97273.56;;;21.62;24.92
55171;BME280;41060;47.510;8.680;2024-03-22T12:10:50;97265.22;;;21.71;24.81
55171;BME280;41060;47.510;8.680;2024-03-22T12:13:15;97272.16;;;21.51;24.56
55171;BME280;41060;47.510;8.680;2024-03-22T12:15:42;97262.44;;;21.50;26.37
55171;BME280;41060;47.510;8.680;2024-03-22T12:18:08;97262.94;;;21.90;24.56
55171;BME280;41060;47.510;8.680;2024-03-22T12:20:35;97250.03;;;22.21;24.28
55171;BME280;41060;47.510;8.680;2024-03-22T12:23:01;97242.88;;;22.77;24.29
55171;BME280;41060;47.510;8.680;2024-03-22T12:25:29;97235.91;;;22.40;23.66
55171;BME280;41060;47.510;8.680;2024-03-22T12:27:55;97239.13;;;22.50;23.71
55171;BME280;41060;47.510;8.680;2024-03-22T12:30:22;97235.38;;;22.09;23.61
55171;BME280;41060;47.510;8.680;2024-03-22T12:32:49;97222.63;;;22.39;24.44
55171;BME280;41060;47.510;8.680;2024-03-22T12:35:16;97219.72;;;22.89;24.29
55171;BME280;41060;47.510;8.680;2024-03-22T12:37:43;97215.31;;;23.10;23.89
55171;BME280;41060;47.510;8.680;2024-03-22T12:40:11;97204.78;;;23.62;24.17
55171;BME280;41060;47.510;8.680;2024-03-22T12:42:38;97210.56;;;23.53;24.19
55171;BME280;41060;47.510;8.680;2024-03-22T12:45:06;97198.88;;;23.93;22.76
55171;BME280;41060;47.510;8.680;2024-03-22T12:47:32;97190.81;;;24.33;22.44
55171;BME280;41060;47.510;8.680;2024-03-22T12:49:59;97180.81;;;24.07;22.46
55171;BME280;41060;47.510;8.680;2024-03-22T12:52:25;97182.94;;;24.38;21.07
55171;BME280;41060;47.510;8.680;2024-03-22T12:54:52;97185.22;;;24.28;20.88
55171;BME280;41060;47.510;8.680;2024-03-22T12:57:17;97173.09;;;24.10;22.00
55171;BME280;41060;47.510;8.680;2024-03-22T12:59:46;97171.06;;;24.39;22.10
55171;BME280;41060;47.510;8.680;2024-03-22T13:02:11;97166.09;;;24.75;21.11